Time;durP1;ratioP1;P1;durP2;ratioP2;P2;SDS_P1;SDS_P2;PMS_P1;PMS_P2;Temp;Humidity;BMP_temperature;BMP_pressure;BME280_temperature;BME280_humidity;BME280_pressure;Samples;Min_cycle;Max_cycle;Signal;HPM_P1;HPM_P2
2022/10/17 00:01:17;;;;;;;;;;;17.30;65.20;;;;;;5074133;28;19924;-74
2022/10/17 00:03:43;;;;;;;;;;;17.30;65.30;;;;;;5075470;28;19921;-74
2022/10/17 00:06:10;;;;;;;;;;;17.30;65.30;;;;;;5073655;28;19924;-74
2022/10/17 00:08:36;;;;;;;;;;;17.30;65.20;;;;;;5074573;28;19956;-74
2022/10/17 00:11:04;;;;;;;;;;;17.40;65.30;;;;;;5074172;28;19926;-73
2022/10/17 00:13:30;;;;;;;;;;;17.30;65.20;;;;;;5073955;28;19927;-74
2022/10/17 00:15:55;;;;;;;;;;;17.30;65.30;;;;;;5075397;28;19920;-74
2022/10/17 00:18:21;;;;;;;;;;;17.30;65.30;;;;;;5073828;28;19924;-73
2022/10/17 00:20:46;;;;;;;;;;;17.30;65.30;;;;;;5073960;28;19928;-74
2022/10/17 00:23:12;;;;;;;;;;;17.30;65.30;;;;;;5074164;28;19920;-74
2022/10/17 00:25:37;;;;;;;;;;;17.30;65.30;;;;;;5074887;28;19929;-74
2022/10/17 00:28:03;;;;;;;;;;;17.30;65.40;;;;;;5074013;28;19920;-74
2022/10/17 00:30:28;;;;;;;;;;;17.30;65.30;;;;;;5075020;28;19920;-73
2022/10/17 00:32:54;;;;;;;;;;;17.30;65.30;;;;;;5073595;28;20372;-74
2022/10/17 00:35:20;;;;;;;;;;;17.30;65.30;;;;;;5074809;28;19924;-74
2022/10/17 00:37:45;;;;;;;;;;;17.30;65.40;;;;;;5073755;28;19920;-74
2022/10/17 00:40:11;;;;;;;;;;;17.30;65.30;;;;;;5073443;28;19924;-74
2022/10/17 00:42:36;;;;;;;;;;;17.30;65.40;;;;;;5073336;28;20027;-71
2022/10/17 00:45:22;;;;;;;;;;;17.30;65.30;;;;;;5073316;28;19977;-74
2022/10/17 00:47:50;;;;;;;;;;;17.30;65.40;;;;;;5074477;28;20011;-74
2022/10/17 00:50:17;;;;;;;;;;;17.30;65.40;;;;;;5074591;28;19921;-73
2022/10/17 00:52:43;;;;;;;;;;;17.30;65.40;;;;;;5073203;28;19924;-74
2022/10/17 00:55:12;;;;;;;;;;;17.30;65.40;;;;;;5073448;28;19920;-74
2022/10/17 00:57:38;;;;;;;;;;;17.30;65.40;;;;;;5073102;28;19931;-74
2022/10/17 01:00:06;;;;;;;;;;;17.20;65.40;;;;;;5073455;28;19920;-74
2022/10/17 01:02:31;;;;;;;;;;;17.30;65.50;;;;;;5072846;28;19920;-74
2022/10/17 01:04:58;;;;;;;;;;;17.30;65.50;;;;;;5072911;28;19970;-73
2022/10/17 01:07:24;;;;;;;;;;;17.30;65.50;;;;;;5074296;28;19924;-74
2022/10/17 01:09:49;;;;;;;;;;;17.30;65.50;;;;;;5072739;28;19943;-74
2022/10/17 01:18:05;;;;;;;;;;;17.30;65.50;;;;;;5122582;27;19913;-74
2022/10/17 01:23:41;;;;;;;;;;;17.30;65.60;;;;;;5122890;27;19913;-74
2022/10/17 01:26:14;;;;;;;;;;;17.20;65.50;;;;;;5088649;28;19924;-74
2022/10/17 01:31:34;;;;;;;;;;;17.30;65.60;;;;;;5122653;27;20360;-74
2022/10/17 01:34:03;;;;;;;;;;;17.20;65.50;;;;;;5089826;28;19920;-74
2022/10/17 01:39:28;;;;;;;;;;;17.20;65.60;;;;;;5143142;27;19919;-74
2022/10/17 01:41:58;;;;;;;;;;;17.20;65.50;;;;;;5109195;28;19919;-74
2022/10/17 01:44:28;;;;;;;;;;;17.20;65.60;;;;;;5108281;28;20049;-74
2022/10/17 01:46:57;;;;;;;;;;;17.30;65.60;;;;;;5108893;28;19920;-74
2022/10/17 01:49:25;;;;;;;;;;;17.30;65.60;;;;;;5109144;28;20014;-74
2022/10/17 01:51:53;;;;;;;;;;;17.20;65.60;;;;;;5108071;28;19920;-74
2022/10/17 01:57:04;;;;;;;;;;;17.30;65.70;;;;;;5122640;27;19913;-74
2022/10/17 01:59:37;;;;;;;;;;;17.30;65.70;;;;;;5088564;28;20486;-74
2022/10/17 02:02:03;;;;;;;;;;;17.30;65.70;;;;;;5088619;28;20384;-75
2022/10/17 02:04:29;;;;;;;;;;;17.20;65.60;;;;;;5089835;28;19924;-74
2022/10/17 02:06:54;;;;;;;;;;;17.20;65.70;;;;;;5088421;28;19932;-74
2022/10/17 02:09:21;;;;;;;;;;;17.20;65.60;;;;;;5088480;28;19920;-74
2022/10/17 02:12:07;;;;;;;;;;;17.20;65.70;;;;;;5088671;28;19921;-72
2022/10/17 02:20:05;;;;;;;;;;;17.20;65.70;;;;;;5122913;27;19912;-74
2022/10/17 02:22:50;;;;;;;;;;;17.20;65.80;;;;;;5088975;28;19974;-74
2022/10/17 02:28:18;;;;;;;;;;;17.20;65.80;;;;;;5123101;27;19912;-73
2022/10/17 02:31:04;;;;;;;;;;;17.20;65.80;;;;;;5088807;28;19971;-74
2022/10/17 02:33:32;;;;;;;;;;;17.20;65.80;;;;;;5088482;28;19920;-74
2022/10/17 02:36:00;;;;;;;;;;;17.20;65.80;;;;;;5089719;28;20296;-74
2022/10/17 02:38:27;;;;;;;;;;;17.20;65.80;;;;;;5087830;28;19964;-74
2022/10/17 02:40:53;;;;;;;;;;;17.20;65.80;;;;;;5088408;28;19927;-74
2022/10/17 02:43:20;;;;;;;;;;;17.20;65.80;;;;;;5089735;28;19943;-75
2022/10/17 02:45:45;;;;;;;;;;;17.20;65.80;;;;;;5088502;28;19920;-74
2022/10/17 02:48:18;;;;;;;;;;;17.20;65.80;;;;;;5087925;28;19921;-74
2022/10/17 02:53:31;;;;;;;;;;;17.20;65.90;;;;;;5122840;27;19913;-74
2022/10/17 02:56:00;;;;;;;;;;;17.20;65.90;;;;;;5089009;28;19920;-74
2022/10/17 02:58:29;;;;;;;;;;;17.20;65.90;;;;;;5122956;28;19928;-74
2022/10/17 03:00:54;;;;;;;;;;;17.10;65.90;;;;;;5122491;28;19920;-74
2022/10/17 03:03:24;;;;;;;;;;;17.20;65.90;;;;;;5088717;28;19928;-74
2022/10/17 03:05:51;;;;;;;;;;;17.20;66.00;;;;;;5089627;28;19924;-74
2022/10/17 03:08:16;;;;;;;;;;;17.20;66.00;;;;;;5122496;28;19970;-74
2022/10/17 03:10:42;;;;;;;;;;;17.20;66.00;;;;;;5088341;28;19920;-74
2022/10/17 03:13:07;;;;;;;;;;;17.20;66.00;;;;;;5088208;28;20008;-74
2022/10/17 03:15:33;;;;;;;;;;;17.20;66.00;;;;;;5089577;28;20227;-74
2022/10/17 03:17:58;;;;;;;;;;;17.20;66.00;;;;;;5088116;28;19924;-74
2022/10/17 03:20:24;;;;;;;;;;;17.20;66.00;;;;;;5088218;28;19927;-75
2022/10/17 03:22:49;;;;;;;;;;;17.10;66.00;;;;;;5088034;28;19921;-74
2022/10/17 03:25:15;;;;;;;;;;;17.10;66.10;;;;;;5088387;28;20158;-74
2022/10/17 03:27:40;;;;;;;;;;;17.10;66.10;;;;;;5087956;28;20379;-74
2022/10/17 03:30:06;;;;;;;;;;;17.10;66.10;;;;;;5087984;28;19920;-74
2022/10/17 03:32:32;;;;;;;;;;;17.10;66.10;;;;;;5087696;28;19924;-74
2022/10/17 03:34:58;;;;;;;;;;;17.10;66.00;;;;;;5087555;28;20292;-71
2022/10/17 03:37:24;;;;;;;;;;;17.10;66.10;;;;;;5089121;28;19920;-74
2022/10/17 03:39:49;;;;;;;;;;;17.10;66.10;;;;;;5088074;28;20390;-74
2022/10/17 03:42:15;;;;;;;;;;;17.10;66.10;;;;;;5088042;28;20474;-71
2022/10/17 03:44:40;;;;;;;;;;;17.20;66.10;;;;;;5088125;28;19960;-74
2022/10/17 03:47:06;;;;;;;;;;;17.10;66.10;;;;;;5087964;28;19921;-74
2022/10/17 03:49:31;;;;;;;;;;;17.10;66.10;;;;;;5088778;28;19920;-74
2022/10/17 03:51:57;;;;;;;;;;;17.10;66.20;;;;;;5087295;28;19924;-73
2022/10/17 03:54:22;;;;;;;;;;;17.20;66.30;;;;;;5070780;28;19920;-74
2022/10/17 03:56:48;;;;;;;;;;;17.10;66.20;;;;;;5088785;28;20023;-72
2022/10/17 03:59:14;;;;;;;;;;;17.20;66.30;;;;;;5088643;28;19927;-74
2022/10/17 04:01:40;;;;;;;;;;;17.10;66.30;;;;;;5087395;28;20109;-74
2022/10/17 04:04:05;;;;;;;;;;;17.10;66.30;;;;;;5078823;28;19920;-74
2022/10/17 04:06:31;;;;;;;;;;;17.10;66.30;;;;;;5073850;28;19920;-74
2022/10/17 04:08:56;;;;;;;;;;;17.10;66.30;;;;;;5073983;28;19990;-74
2022/10/17 04:11:22;;;;;;;;;;;17.10;66.40;;;;;;5074927;28;20445;-75
2022/10/17 04:13:51;;;;;;;;;;;17.20;66.40;;;;;;5074850;28;19920;-74
2022/10/17 04:16:17;;;;;;;;;;;17.10;66.40;;;;;;5073935;28;20016;-74
2022/10/17 04:18:43;;;;;;;;;;;17.10;66.40;;;;;;5074796;28;20334;-74
2022/10/17 04:21:08;;;;;;;;;;;17.10;66.40;;;;;;5073798;28;19920;-74
2022/10/17 04:23:34;;;;;;;;;;;17.10;66.40;;;;;;5073526;28;19920;-74
2022/10/17 04:26:02;;;;;;;;;;;17.10;66.40;;;;;;5073795;28;20019;-74
2022/10/17 04:28:27;;;;;;;;;;;17.10;66.40;;;;;;5073758;28;19921;-74
2022/10/17 04:30:54;;;;;;;;;;;17.10;66.40;;;;;;5073604;28;20395;-74
2022/10/17 04:33:20;;;;;;;;;;;17.10;66.50;;;;;;5074434;28;19925;-74
2022/10/17 04:35:53;;;;;;;;;;;17.10;66.40;;;;;;5073229;28;19928;-74
2022/10/17 04:38:19;;;;;;;;;;;17.10;66.40;;;;;;5073781;28;19932;-74
2022/10/17 04:40:44;;;;;;;;;;;17.10;67.20;;;;;;5074321;28;20376;-74
2022/10/17 04:43:10;;;;;;;;;;;17.10;66.50;;;;;;5073141;28;19924;-72
2022/10/17 04:45:35;;;;;;;;;;;17.10;66.50;;;;;;5074407;28;20367;-74
2022/10/17 04:48:01;;;;;;;;;;;17.10;66.50;;;;;;5073256;28;19927;-74
2022/10/17 04:50:26;;;;;;;;;;;17.10;66.50;;;;;;5072928;28;19920;-74
2022/10/17 04:52:52;;;;;;;;;;;17.10;66.50;;;;;;5072701;28;19924;-74
2022/10/17 04:55:17;;;;;;;;;;;17.10;66.60;;;;;;5072236;28;19924;-74
2022/10/17 04:57:43;;;;;;;;;;;17.10;66.60;;;;;;5074021;28;19924;-74
2022/10/17 05:00:08;;;;;;;;;;;17.10;66.60;;;;;;5072845;28;19920;-74
2022/10/17 05:02:34;;;;;;;;;;;17.10;66.60;;;;;;5072931;28;19920;-74
2022/10/17 05:05:00;;;;;;;;;;;17.10;66.60;;;;;;5073940;28;19920;-74
2022/10/17 05:07:25;;;;;;;;;;;17.10;66.60;;;;;;5073067;28;19928;-74
2022/10/17 05:09:50;;;;;;;;;;;17.10;66.60;;;;;;5072855;28;19928;-74
2022/10/17 05:12:16;;;;;;;;;;;17.10;66.60;;;;;;5072605;28;19947;-74
2022/10/17 05:14:41;;;;;;;;;;;17.10;66.70;;;;;;5072991;28;20391;-74
2022/10/17 05:17:07;;;;;;;;;;;17.10;66.70;;;;;;5073538;28;20388;-74
2022/10/17 05:19:32;;;;;;;;;;;17.10;66.60;;;;;;5074107;28;19920;-74
2022/10/17 05:21:58;;;;;;;;;;;17.10;67.00;;;;;;5073556;28;20388;-74
2022/10/17 05:24:24;;;;;;;;;;;17.10;66.70;;;;;;5072314;28;19920;-74
2022/10/17 05:26:50;;;;;;;;;;;17.00;66.70;;;;;;5073420;28;19924;-74
2022/10/17 05:29:16;;;;;;;;;;;17.10;66.70;;;;;;5072588;28;20036;-73
2022/10/17 05:31:41;;;;;;;;;;;17.10;66.70;;;;;;5072128;28;20018;-74
2022/10/17 05:34:07;;;;;;;;;;;17.00;66.70;;;;;;5072121;28;19920;-74
2022/10/17 05:36:32;;;;;;;;;;;17.10;66.70;;;;;;5071977;28;19920;-74
2022/10/17 05:38:58;;;;;;;;;;;17.10;66.80;;;;;;5073260;28;19920;-74
2022/10/17 05:41:23;;;;;;;;;;;17.00;66.70;;;;;;5071963;28;20003;-74
2022/10/17 05:43:49;;;;;;;;;;;17.10;66.90;;;;;;5072208;28;20018;-74
2022/10/17 05:46:15;;;;;;;;;;;17.10;66.90;;;;;;5072195;28;20340;-74
2022/10/17 05:48:41;;;;;;;;;;;17.10;66.90;;;;;;5071827;28;20013;-74
2022/10/17 05:51:07;;;;;;;;;;;17.10;66.90;;;;;;5071621;28;19927;-74
2022/10/17 05:53:35;;;;;;;;;;;17.10;67.00;;;;;;5071696;28;20391;-74
2022/10/17 05:56:02;;;;;;;;;;;17.00;66.90;;;;;;5071651;28;19920;-74
2022/10/17 05:58:27;;;;;;;;;;;17.10;67.00;;;;;;5071899;28;19924;-74
2022/10/17 06:00:57;;;;;;;;;;;17.10;67.00;;;;;;5071597;28;19921;-74
2022/10/17 06:03:22;;;;;;;;;;;17.00;67.00;;;;;;5071484;28;19927;-74
2022/10/17 06:05:48;;;;;;;;;;;17.00;67.00;;;;;;5072716;28;20025;-74
2022/10/17 06:08:13;;;;;;;;;;;17.00;67.00;;;;;;5071434;28;20442;-74
2022/10/17 06:10:39;;;;;;;;;;;17.00;67.10;;;;;;5071500;28;20029;-74
2022/10/17 06:13:04;;;;;;;;;;;17.00;67.10;;;;;;5072681;28;19920;-73
2022/10/17 06:15:30;;;;;;;;;;;17.00;67.10;;;;;;5071431;28;19925;-74
2022/10/17 06:17:55;;;;;;;;;;;17.00;67.10;;;;;;5072599;28;19928;-74
2022/10/17 06:20:21;;;;;;;;;;;17.00;67.10;;;;;;5071295;28;20022;-72
2022/10/17 06:22:46;;;;;;;;;;;17.10;67.30;;;;;;5072585;28;19920;-74
2022/10/17 06:25:12;;;;;;;;;;;17.10;67.30;;;;;;5072533;28;19920;-74
2022/10/17 06:27:37;;;;;;;;;;;17.10;67.30;;;;;;5071142;28;19920;-74
2022/10/17 06:30:03;;;;;;;;;;;17.00;67.30;;;;;;5071582;28;19928;-73
2022/10/17 06:32:29;;;;;;;;;;;17.10;67.40;;;;;;5071082;28;20427;-74
2022/10/17 06:34:54;;;;;;;;;;;17.00;67.30;;;;;;5071098;28;19924;-74
2022/10/17 06:37:20;;;;;;;;;;;17.00;67.30;;;;;;5071040;28;19920;-74
2022/10/17 06:39:45;;;;;;;;;;;17.00;67.30;;;;;;5071035;28;19928;-74
2022/10/17 06:42:11;;;;;;;;;;;17.00;67.40;;;;;;5070416;28;19920;-74
2022/10/17 06:44:38;;;;;;;;;;;17.10;67.40;;;;;;5070748;28;19920;-74
2022/10/17 06:47:04;;;;;;;;;;;17.00;67.40;;;;;;5072321;28;19921;-74
2022/10/17 06:49:31;;;;;;;;;;;17.00;67.40;;;;;;5071211;28;20422;-72
2022/10/17 06:51:56;;;;;;;;;;;17.00;67.40;;;;;;5070590;28;20014;-74
2022/10/17 06:54:22;;;;;;;;;;;17.10;67.50;;;;;;5070796;28;19967;-74
2022/10/17 06:56:47;;;;;;;;;;;17.00;67.40;;;;;;5072311;28;19921;-74
2022/10/17 06:59:14;;;;;;;;;;;17.00;67.40;;;;;;5070848;28;19924;-74
2022/10/17 07:01:39;;;;;;;;;;;17.00;67.50;;;;;;5071166;28;19982;-73
2022/10/17 07:04:05;;;;;;;;;;;17.10;67.60;;;;;;5070943;28;19920;-74
2022/10/17 07:06:30;;;;;;;;;;;17.00;67.50;;;;;;5072513;28;19921;-72
2022/10/17 07:08:56;;;;;;;;;;;17.00;67.50;;;;;;5071942;28;19982;-74
2022/10/17 07:11:22;;;;;;;;;;;17.00;67.60;;;;;;5070937;28;19920;-74
2022/10/17 07:13:47;;;;;;;;;;;17.00;67.60;;;;;;5071032;28;19920;-74
2022/10/17 07:16:14;;;;;;;;;;;17.00;67.70;;;;;;5070731;28;20299;-74
2022/10/17 07:18:39;;;;;;;;;;;17.00;67.70;;;;;;5071036;28;19932;-74
2022/10/17 07:21:07;;;;;;;;;;;17.00;67.70;;;;;;5070757;28;20367;-74
2022/10/17 07:23:35;;;;;;;;;;;17.00;67.70;;;;;;5070947;28;19921;-74
2022/10/17 07:26:01;;;;;;;;;;;17.00;67.70;;;;;;5070600;28;19920;-74
2022/10/17 07:28:27;;;;;;;;;;;17.00;67.70;;;;;;5070873;28;19920;-73
2022/10/17 07:30:53;;;;;;;;;;;17.00;67.80;;;;;;5070840;28;20257;-74
2022/10/17 07:33:19;;;;;;;;;;;17.00;67.90;;;;;;5070599;28;19935;-74
2022/10/17 07:35:44;;;;;;;;;;;17.00;67.90;;;;;;5071110;28;19921;-73
2022/10/17 07:38:10;;;;;;;;;;;17.00;67.90;;;;;;5072170;28;19943;-73
2022/10/17 07:40:35;;;;;;;;;;;17.00;68.00;;;;;;5074466;28;19920;-74
2022/10/17 07:43:01;;;;;;;;;;;17.00;67.90;;;;;;5075548;28;19927;-71
2022/10/17 07:45:27;;;;;;;;;;;17.00;68.00;;;;;;5074366;28;19970;-74
2022/10/17 07:47:56;;;;;;;;;;;17.00;68.00;;;;;;5074125;28;19979;-74
2022/10/17 07:50:21;;;;;;;;;;;17.10;68.10;;;;;;5074433;28;19996;-74
2022/10/17 07:52:47;;;;;;;;;;;17.10;68.20;;;;;;5075009;28;20376;-74
2022/10/17 07:55:12;;;;;;;;;;;17.00;68.10;;;;;;5074282;28;19924;-74
2022/10/17 07:57:39;;;;;;;;;;;17.00;68.20;;;;;;5074184;28;20324;-74
2022/10/17 08:00:05;;;;;;;;;;;17.00;68.20;;;;;;5074323;28;19928;-74
2022/10/17 08:02:31;;;;;;;;;;;17.00;68.30;;;;;;5073790;28;19927;-74
2022/10/17 08:04:56;;;;;;;;;;;17.00;68.30;;;;;;5075100;28;19920;-74
2022/10/17 08:07:22;;;;;;;;;;;17.00;68.30;;;;;;5073776;28;19928;-74
2022/10/17 08:09:47;;;;;;;;;;;17.00;68.30;;;;;;5074988;28;19927;-74
2022/10/17 08:12:13;;;;;;;;;;;17.00;68.30;;;;;;5073796;28;19977;-74
2022/10/17 08:14:39;;;;;;;;;;;17.10;68.40;;;;;;5073681;28;20074;-74
2022/10/17 08:17:05;;;;;;;;;;;17.00;68.40;;;;;;5073680;28;19931;-74
2022/10/17 08:19:30;;;;;;;;;;;17.00;68.40;;;;;;5073879;28;19920;-75
2022/10/17 08:21:57;;;;;;;;;;;17.00;68.30;;;;;;5073477;28;20003;-75
2022/10/17 08:24:23;;;;;;;;;;;17.00;68.30;;;;;;5073424;28;19928;-74
2022/10/17 08:26:49;;;;;;;;;;;17.00;68.10;;;;;;5072569;28;19925;-67
2022/10/17 08:29:15;;;;;;;;;;;17.00;68.50;;;;;;5070542;28;20019;-69
2022/10/17 08:31:41;;;;;;;;;;;17.00;69.40;;;;;;5071996;28;20017;-72
2022/10/17 08:34:06;;;;;;;;;;;17.10;70.60;;;;;;5071168;28;19964;-66
2022/10/17 08:36:32;;;;;;;;;;;17.10;70.10;;;;;;5073061;28;19982;-64
2022/10/17 08:38:57;;;;;;;;;;;17.10;70.20;;;;;;5070315;28;20304;-70
2022/10/17 08:41:43;;;;;;;;;;;17.10;70.90;;;;;;5073033;28;19924;-70
2022/10/17 08:46:50;;;;;;;;;;;17.10;70.30;;;;;;5114891;27;20390;-68
2022/10/17 08:49:22;;;;;;;;;;;17.10;70.60;;;;;;5088271;28;19920;-68
2022/10/17 08:51:50;;;;;;;;;;;17.20;70.70;;;;;;5085871;28;20184;-72
2022/10/17 08:54:19;;;;;;;;;;;17.10;70.60;;;;;;5088386;28;19927;-71
2022/10/17 08:56:47;;;;;;;;;;;17.10;70.70;;;;;;5087487;28;19927;-73
2022/10/17 08:59:15;;;;;;;;;;;17.10;70.70;;;;;;5087418;28;20398;-73
2022/10/17 09:09:46;;;;;;;;;;;17.20;71.10;;;;;;5122216;27;19912;-74
2022/10/17 09:12:17;;;;;;;;;;;17.20;71.30;;;;;;5087475;28;19924;-74
2022/10/17 09:17:32;;;;;;;;;;;17.20;71.30;;;;;;5165834;27;797616;-74
2022/10/17 09:20:09;;;;;;;;;;;17.20;71.40;;;;;;5169093;27;19919;-74
2022/10/17 09:22:39;;;;;;;;;;;17.20;71.40;;;;;;5174533;27;19923;-74
2022/10/17 09:25:08;;;;;;;;;;;17.20;71.40;;;;;;5178748;27;19945;-75
2022/10/17 09:27:39;;;;;;;;;;;17.20;71.40;;;;;;5169670;27;20480;-72
2022/10/17 09:30:24;;;;;;;;;;;17.20;71.40;;;;;;5178572;27;20388;-72
2022/10/17 09:32:50;;;;;;;;;;;17.20;71.50;;;;;;5155729;27;19926;-73
2022/10/17 09:35:16;;;;;;;;;;;17.20;71.40;;;;;;5164397;27;20390;-72
2022/10/17 09:37:42;;;;;;;;;;;17.20;71.70;;;;;;5180162;27;19923;-72
2022/10/17 09:40:16;;;;;;;;;;;17.20;71.60;;;;;;5183701;27;19942;-72
2022/10/17 09:42:43;;;;;;;;;;;17.20;71.60;;;;;;5153527;27;19919;-72
2022/10/17 09:45:25;;;;;;;;;;;17.20;71.70;;;;;;5152923;27;20010;-72
2022/10/17 09:47:56;;;;;;;;;;;17.30;71.80;;;;;;5160150;27;20309;-75
2022/10/17 09:50:26;;;;;;;;;;;17.20;71.80;;;;;;5174164;27;19966;-72
2022/10/17 09:52:52;;;;;;;;;;;17.20;71.70;;;;;;5160485;27;19981;-71
2022/10/17 09:55:21;;;;;;;;;;;17.20;71.80;;;;;;5152709;27;19923;-74
2022/10/17 09:57:51;;;;;;;;;;;17.20;71.90;;;;;;5152655;27;19926;-74
2022/10/17 10:00:21;;;;;;;;;;;17.30;72.00;;;;;;5171019;27;19973;-71
2022/10/17 10:02:46;;;;;;;;;;;17.20;71.90;;;;;;5152516;27;19951;-74
2022/10/17 10:05:16;;;;;;;;;;;17.30;71.90;;;;;;5171202;27;19966;-74
2022/10/17 10:07:44;;;;;;;;;;;17.30;71.90;;;;;;5152746;27;19919;-74
2022/10/17 10:10:26;;;;;;;;;;;17.30;71.80;;;;;;5152659;27;19926;-74
2022/10/17 10:13:01;;;;;;;;;;;17.20;71.60;;;;;;5152810;27;19926;-72
2022/10/17 10:15:32;;;;;;;;;;;17.20;71.50;;;;;;5170809;27;19923;-75
2022/10/17 10:17:58;;;;;;;;;;;17.20;71.40;;;;;;5152382;27;19923;-72
2022/10/17 10:20:25;;;;;;;;;;;17.30;71.40;;;;;;5152371;27;20014;-73
2022/10/17 10:25:52;;;;;;;;;;;17.20;71.70;;;;;;5122649;27;19913;-73
2022/10/17 10:28:18;;;;;;;;;;;17.20;71.20;;;;;;5088491;28;19954;-73
2022/10/17 10:30:48;;;;;;;;;;;17.20;71.20;;;;;;5088570;28;19920;-73
2022/10/17 10:33:14;;;;;;;;;;;17.20;71.20;;;;;;5088798;28;19977;-72
2022/10/17 10:35:39;;;;;;;;;;;17.20;71.20;;;;;;5088455;28;20383;-72
2022/10/17 10:38:09;;;;;;;;;;;17.20;71.90;;;;;;5122674;27;20011;-72
2022/10/17 10:40:37;;;;;;;;;;;17.20;71.20;;;;;;5087652;28;19921;-72
2022/10/17 10:43:04;;;;;;;;;;;17.20;71.20;;;;;;5087996;28;19920;-72
2022/10/17 10:48:25;;;;;;;;;;;17.10;71.20;;;;;;5122560;27;19912;-71
2022/10/17 10:50:55;;;;;;;;;;;17.20;71.20;;;;;;5088800;28;19927;-71
2022/10/17 10:53:29;;;;;;;;;;;17.20;71.20;;;;;;5089626;28;19920;-71
2022/10/17 10:58:53;;;;;;;;;;;17.20;71.10;;;;;;5122926;27;19920;-72
2022/10/17 11:01:39;;;;;;;;;;;17.20;70.90;;;;;;5088751;28;20053;-73
2022/10/17 11:06:44;;;;;;;;;;;17.10;70.90;;;;;;5122872;27;19913;-73
2022/10/17 11:09:29;;;;;;;;;;;17.20;71.00;;;;;;5088573;28;19959;-73
2022/10/17 11:11:59;;;;;;;;;;;17.20;71.00;;;;;;5088738;28;20026;-73
2022/10/17 11:14:44;;;;;;;;;;;17.20;71.00;;;;;;5122814;28;19921;-73
2022/10/17 11:17:17;;;;;;;;;;;17.20;71.10;;;;;;5088107;28;19973;-73
2022/10/17 11:25:04;;;;;;;;;;;17.10;71.00;;;;;;5122356;27;19912;-73
2022/10/17 11:27:30;;;;;;;;;;;17.10;70.90;;;;;;5122951;28;20054;-73
2022/10/17 11:29:56;;;;;;;;;;;17.10;71.00;;;;;;5088487;28;20019;-73
2022/10/17 11:32:25;;;;;;;;;;;17.20;71.10;;;;;;5087835;28;19921;-73
2022/10/17 11:34:55;;;;;;;;;;;17.20;71.10;;;;;;5088606;28;19921;-73
2022/10/17 11:37:22;;;;;;;;;;;17.20;71.10;;;;;;5088424;28;19926;-73
2022/10/17 11:39:53;;;;;;;;;;;17.20;71.10;;;;;;5088546;28;19942;-73
2022/10/17 11:42:23;;;;;;;;;;;17.20;71.10;;;;;;5088243;28;19920;-73
2022/10/17 11:44:52;;;;;;;;;;;17.10;71.10;;;;;;5088171;28;20376;-73
2022/10/17 11:50:17;;;;;;;;;;;17.10;71.10;;;;;;5122342;27;19919;-73
2022/10/17 11:52:45;;;;;;;;;;;17.10;71.20;;;;;;5089730;28;20003;-72
2022/10/17 11:55:27;;;;;;;;;;;17.20;71.30;;;;;;5088743;28;20062;-72
2022/10/17 12:00:52;;;;;;;;;;;17.20;71.30;;;;;;5122861;27;19913;-72
2022/10/17 12:06:04;;;;;;;;;;;17.20;71.20;;;;;;5122819;27;19912;-69
2022/10/17 12:11:33;;;;;;;;;;;17.20;71.20;;;;;;5126229;27;19934;-71
2022/10/17 12:13:59;;;;;;;;;;;17.10;71.20;;;;;;5108817;28;19920;-71
2022/10/17 12:19:18;;;;;;;;;;;17.10;71.20;;;;;;5150258;27;19919;-71
2022/10/17 12:22:03;;;;;;;;;;;17.20;71.30;;;;;;5150073;27;19919;-71
2022/10/17 12:24:32;;;;;;;;;;;17.20;71.40;;;;;;5150120;27;20078;-71
2022/10/17 12:27:18;;;;;;;;;;;17.20;71.40;;;;;;5150335;27;19942;-71
2022/10/17 12:29:43;;;;;;;;;;;17.10;71.40;;;;;;5151117;27;19930;-71
2022/10/17 12:32:10;;;;;;;;;;;17.10;71.50;;;;;;5149833;27;19919;-71
2022/10/17 12:34:36;;;;;;;;;;;17.20;71.50;;;;;;5138464;27;19920;-71
2022/10/17 12:37:02;;;;;;;;;;;17.10;71.60;;;;;;5128783;28;20400;-71
2022/10/17 12:42:27;;;;;;;;;;;17.20;71.70;;;;;;5122861;27;19919;-71
2022/10/17 12:44:52;;;;;;;;;;;17.10;71.60;;;;;;5088324;28;19921;-71
2022/10/17 12:47:37;;;;;;;;;;;17.20;71.70;;;;;;5088526;28;19927;-71
2022/10/17 12:50:23;;;;;;;;;;;17.20;71.70;;;;;;5089604;28;19955;-71
2022/10/17 12:52:53;;;;;;;;;;;17.20;71.70;;;;;;5088134;28;19943;-71
2022/10/17 12:55:23;;;;;;;;;;;17.20;71.70;;;;;;5087674;28;20376;-71
2022/10/17 12:57:52;;;;;;;;;;;17.20;71.70;;;;;;5088439;28;19924;-71
2022/10/17 13:00:34;;;;;;;;;;;17.20;71.80;;;;;;5088225;28;19931;-71
2022/10/17 13:03:04;;;;;;;;;;;17.20;71.80;;;;;;5088477;28;20015;-70
2022/10/17 13:05:31;;;;;;;;;;;17.20;71.80;;;;;;5088546;28;19987;-71
2022/10/17 13:07:59;;;;;;;;;;;17.20;71.80;;;;;;5089290;28;20003;-71
2022/10/17 13:10:27;;;;;;;;;;;17.20;71.80;;;;;;5088131;28;19920;-70
2022/10/17 13:12:57;;;;;;;;;;;17.20;71.80;;;;;;5089210;28;20220;-71
2022/10/17 13:15:23;;;;;;;;;;;17.20;71.80;;;;;;5088406;28;19969;-71
2022/10/17 13:17:54;;;;;;;;;;;17.20;71.70;;;;;;5089272;28;19921;-70
2022/10/17 13:20:23;;;;;;;;;;;17.20;71.80;;;;;;5089139;28;19964;-71
2022/10/17 13:22:49;;;;;;;;;;;17.20;71.80;;;;;;5088103;28;19960;-70
2022/10/17 13:25:17;;;;;;;;;;;17.20;71.80;;;;;;5087835;28;19971;-70
2022/10/17 13:27:43;;;;;;;;;;;17.20;71.80;;;;;;5088438;28;19948;-71
2022/10/17 13:30:28;;;;;;;;;;;17.20;71.80;;;;;;5087803;28;20007;-71
2022/10/17 13:32:54;;;;;;;;;;;17.20;71.90;;;;;;5088823;28;20288;-70
2022/10/17 13:35:36;;;;;;;;;;;17.20;71.90;;;;;;5087580;28;19931;-70
2022/10/17 13:38:05;;;;;;;;;;;17.20;71.90;;;;;;5088979;28;19934;-70
2022/10/17 13:40:37;;;;;;;;;;;17.20;71.90;;;;;;5087155;28;19931;-71
2022/10/17 13:43:04;;;;;;;;;;;17.20;72.00;;;;;;5087428;28;20407;-72
2022/10/17 13:45:32;;;;;;;;;;;17.20;72.00;;;;;;5088738;28;19924;-71
2022/10/17 13:48:01;;;;;;;;;;;17.20;72.10;;;;;;5088520;28;19924;-71
2022/10/17 13:50:36;;;;;;;;;;;17.20;72.20;;;;;;5088702;28;19920;-72
2022/10/17 13:55:58;;;;;;;;;;;17.20;72.00;;;;;;5166263;27;798394;-72
2022/10/17 13:58:24;;;;;;;;;;;17.20;72.00;;;;;;5195265;27;19918;-72
2022/10/17 14:00:51;;;;;;;;;;;17.20;72.00;;;;;;5195481;27;19971;-72
2022/10/17 14:03:19;;;;;;;;;;;17.20;72.00;;;;;;5195385;27;20289;-72
2022/10/17 14:06:04;;;;;;;;;;;17.20;72.00;;;;;;5195555;27;20254;-72
2022/10/17 14:08:30;;;;;;;;;;;17.20;72.00;;;;;;5195330;27;20330;-72
2022/10/17 14:10:56;;;;;;;;;;;17.20;71.90;;;;;;5195150;27;19925;-72
2022/10/17 14:16:01;;;;;;;;;;;17.20;71.80;;;;;;5122941;27;20166;-72
2022/10/17 14:18:29;;;;;;;;;;;17.20;71.80;;;;;;5088523;28;20031;-72
2022/10/17 14:20:54;;;;;;;;;;;17.20;71.70;;;;;;5123057;28;20208;-72
2022/10/17 14:23:37;;;;;;;;;;;17.20;71.70;;;;;;5088572;28;20208;-71
2022/10/17 14:26:04;;;;;;;;;;;17.20;71.70;;;;;;5088807;28;19921;-73
2022/10/17 14:28:29;;;;;;;;;;;17.20;71.70;;;;;;5122878;28;19920;-72
2022/10/17 14:31:07;;;;;;;;;;;17.30;71.70;;;;;;5088574;28;19971;-71
2022/10/17 14:33:34;;;;;;;;;;;17.20;71.70;;;;;;5088335;28;19951;-72
2022/10/17 14:36:00;;;;;;;;;;;17.20;71.70;;;;;;5088476;28;19920;-72
2022/10/17 14:38:26;;;;;;;;;;;17.20;71.70;;;;;;5088222;28;19931;-72
2022/10/17 14:41:01;;;;;;;;;;;17.20;71.70;;;;;;5089538;28;20365;-71
2022/10/17 14:43:29;;;;;;;;;;;17.20;71.70;;;;;;5088387;28;20372;-72
2022/10/17 14:45:56;;;;;;;;;;;17.20;71.70;;;;;;5088342;28;19920;-71
2022/10/17 14:48:23;;;;;;;;;;;17.20;71.70;;;;;;5088103;28;19920;-71
2022/10/17 14:51:08;;;;;;;;;;;17.20;71.70;;;;;;5089221;28;19951;-71
2022/10/17 14:53:34;;;;;;;;;;;17.20;71.70;;;;;;5087674;28;19924;-72
2022/10/17 14:56:01;;;;;;;;;;;17.20;71.70;;;;;;5087856;28;20379;-71
2022/10/17 14:58:28;;;;;;;;;;;17.20;71.60;;;;;;5089222;28;20038;-71
2022/10/17 15:00:54;;;;;;;;;;;17.20;71.60;;;;;;5087843;28;20345;-71
2022/10/17 15:03:19;;;;;;;;;;;17.20;71.60;;;;;;5089052;28;19980;-71
2022/10/17 15:05:46;;;;;;;;;;;17.20;71.60;;;;;;5087930;28;20069;-71
2022/10/17 15:08:13;;;;;;;;;;;17.20;71.70;;;;;;5088971;28;20383;-71
2022/10/17 15:10:40;;;;;;;;;;;17.20;71.60;;;;;;5121822;27;20006;-71
2022/10/17 15:13:06;;;;;;;;;;;17.20;71.70;;;;;;5087586;28;19935;-71
2022/10/17 15:15:32;;;;;;;;;;;17.20;71.60;;;;;;5087236;28;20476;-71
2022/10/17 15:17:58;;;;;;;;;;;17.10;71.60;;;;;;5087519;28;19920;-72
2022/10/17 15:20:26;;;;;;;;;;;17.20;71.70;;;;;;5087665;28;19928;-72
2022/10/17 15:22:52;;;;;;;;;;;17.20;71.70;;;;;;5088901;28;19921;-71
2022/10/17 15:25:18;;;;;;;;;;;17.20;71.60;;;;;;5085758;28;19924;-71
2022/10/17 15:27:43;;;;;;;;;;;17.20;71.60;;;;;;5107737;28;20030;-72
2022/10/17 15:30:25;;;;;;;;;;;17.20;71.70;;;;;;5074077;28;20327;-71
2022/10/17 15:32:51;;;;;;;;;;;17.20;71.50;;;;;;5073246;28;20304;-71
2022/10/17 15:35:17;;;;;;;;;;;17.20;71.70;;;;;;5074659;28;20384;-71
2022/10/17 15:37:45;;;;;;;;;;;17.20;71.70;;;;;;5073943;28;19921;-71
2022/10/17 15:40:15;;;;;;;;;;;17.20;71.70;;;;;;5073648;28;19963;-71
2022/10/17 15:42:41;;;;;;;;;;;17.20;71.70;;;;;;5074776;28;19936;-71